sensor_id;sensor_type;location;lat;lon;timestamp;pressure;altitude;pressure_sealevel;temperature;humidity
71573;BME280;59408;51.032;9.410;2023-05-07T00:00:21;99115.16;;;11.25;100.00
71573;BME280;59408;51.032;9.410;2023-05-07T00:02:47;99115.81;;;11.22;100.00
71573;BME280;59408;51.032;9.410;2023-05-07T00:05:15;99106.72;;;11.18;100.00
71573;BME280;59408;51.032;9.410;2023-05-07T00:07:42;99103.06;;;11.14;100.00
71573;BME280;59408;51.032;9.410;2023-05-07T00:10:10;99108.06;;;11.12;100.00
71573;BME280;59408;51.032;9.410;2023-05-07T00:12:37;99097.84;;;11.09;100.00
71573;BME280;59408;51.032;9.410;2023-05-07T00:15:05;99101.38;;;11.10;100.00
71573;BME280;59408;51.032;9.410;2023-05-07T00:17:33;99098.41;;;11.03;100.00
71573;BME280;59408;51.032;9.410;2023-05-07T00:19:59;99099.56;;;11.02;100.00
71573;BME280;59408;51.032;9.410;2023-05-07T00:22:26;99106.47;;;10.99;100.00
71573;BME280;59408;51.032;9.410;2023-05-07T00:24:53;99116.94;;;10.97;100.00
71573;BME280;59408;51.032;9.410;2023-05-07T00:27:21;99109.88;;;10.96;100.00
71573;BME280;59408;51.032;9.410;2023-05-07T00:29:47;99121.59;;;10.96;100.00
71573;BME280;59408;51.032;9.410;2023-05-07T00:32:14;99119.09;;;10.91;100.00
71573;BME280;59408;51.032;9.410;2023-05-07T00:34:41;99122.25;;;10.93;100.00
71573;BME280;59408;51.032;9.410;2023-05-07T00:37:08;99123.06;;;10.94;100.00
71573;BME280;59408;51.032;9.410;2023-05-07T00:39:34;99122.97;;;10.90;100.00
71573;BME280;59408;51.032;9.410;2023-05-07T00:42:01;99115.44;;;10.87;100.00
71573;BME280;59408;51.032;9.410;2023-05-07T00:44:30;99119.78;;;10.88;100.00
71573;BME280;59408;51.032;9.410;2023-05-07T00:46:56;99109.53;;;10.85;100.00
71573;BME280;59408;51.032;9.410;2023-05-07T00:49:26;99109.09;;;10.83;100.00
71573;BME280;59408;51.032;9.410;2023-05-07T00:51:57;99107.50;;;10.82;100.00
71573;BME280;59408;51.032;9.410;2023-05-07T00:54:24;99105.09;;;10.81;100.00
71573;BME280;59408;51.032;9.410;2023-05-07T00:56:50;99108.50;;;10.78;100.00
71573;BME280;59408;51.032;9.410;2023-05-07T00:59:17;99107.56;;;10.74;100.00
71573;BME280;59408;51.032;9.410;2023-05-07T01:01:45;99100.63;;;10.76;100.00
71573;BME280;59408;51.032;9.410;2023-05-07T01:04:12;99092.78;;;10.75;100.00
71573;BME280;59408;51.032;9.410;2023-05-07T01:06:40;99091.19;;;10.74;100.00
71573;BME280;59408;51.032;9.410;2023-05-07T01:09:07;99090.72;;;10.72;100.00
71573;BME280;59408;51.032;9.410;2023-05-07T01:11:34;99092.31;;;10.73;100.00
71573;BME280;59408;51.032;9.410;2023-05-07T01:14:01;99093.13;;;10.73;100.00
71573;BME280;59408;51.032;9.410;2023-05-07T01:16:28;99087.19;;;10.71;100.00
71573;BME280;59408;51.032;9.410;2023-05-07T01:18:56;99096.50;;;10.70;100.00
71573;BME280;59408;51.032;9.410;2023-05-07T01:21:25;99088.66;;;10.69;100.00
71573;BME280;59408;51.032;9.410;2023-05-07T01:23:54;99094.78;;;10.66;100.00
71573;BME280;59408;51.032;9.410;2023-05-07T01:26:21;99092.41;;;10.64;100.00
71573;BME280;59408;51.032;9.410;2023-05-07T01:28:47;99092.28;;;10.60;100.00
71573;BME280;59408;51.032;9.410;2023-05-07T01:31:16;99095.00;;;10.60;100.00
71573;BME280;59408;51.032;9.410;2023-05-07T01:33:44;99093.88;;;10.61;100.00
71573;BME280;59408;51.032;9.410;2023-05-07T01:36:13;99095.00;;;10.60;100.00
71573;BME280;59408;51.032;9.410;2023-05-07T01:38:41;99094.22;;;10.60;100.00
71573;BME280;59408;51.032;9.410;2023-05-07T01:41:10;99098.06;;;10.59;100.00
71573;BME280;59408;51.032;9.410;2023-05-07T01:43:37;99095.34;;;10.59;100.00
71573;BME280;59408;51.032;9.410;2023-05-07T01:46:04;99085.22;;;10.59;100.00
71573;BME280;59408;51.032;9.410;2023-05-07T01:48:32;99091.03;;;10.58;100.00
71573;BME280;59408;51.032;9.410;2023-05-07T01:50:59;99099.19;;;10.58;100.00
71573;BME280;59408;51.032;9.410;2023-05-07T01:53:27;99088.19;;;10.54;100.00
71573;BME280;59408;51.032;9.410;2023-05-07T01:55:53;99092.72;;;10.50;100.00
71573;BME280;59408;51.032;9.410;2023-05-07T01:58:21;99099.75;;;10.51;100.00
71573;BME280;59408;51.032;9.410;2023-05-07T02:00:48;99101.22;;;10.49;100.00
71573;BME280;59408;51.032;9.410;2023-05-07T02:03:14;99096.56;;;10.49;100.00
71573;BME280;59408;51.032;9.410;2023-05-07T02:05:41;99098.50;;;10.49;100.00
71573;BME280;59408;51.032;9.410;2023-05-07T02:08:08;99095.31;;;10.47;100.00
71573;BME280;59408;51.032;9.410;2023-05-07T02:10:34;99090.53;;;10.44;100.00
71573;BME280;59408;51.032;9.410;2023-05-07T02:13:01;99089.06;;;10.46;100.00
71573;BME280;59408;51.032;9.410;2023-05-07T02:15:29;99092.13;;;10.45;100.00
71573;BME280;59408;51.032;9.410;2023-05-07T02:18:00;99088.28;;;10.46;100.00
71573;BME280;59408;51.032;9.410;2023-05-07T02:20:27;99087.00;;;10.43;100.00
71573;BME280;59408;51.032;9.410;2023-05-07T02:22:54;99087.66;;;10.40;100.00
71573;BME280;59408;51.032;9.410;2023-05-07T02:25:21;99091.53;;;10.39;100.00
71573;BME280;59408;51.032;9.410;2023-05-07T02:27:47;99080.63;;;10.39;100.00
71573;BME280;59408;51.032;9.410;2023-05-07T02:30:14;99094.94;;;10.36;100.00
71573;BME280;59408;51.032;9.410;2023-05-07T02:32:45;99086.44;;;10.38;100.00
71573;BME280;59408;51.032;9.410;2023-05-07T02:35:12;99092.22;;;10.36;100.00
71573;BME280;59408;51.032;9.410;2023-05-07T02:37:39;99090.16;;;10.33;100.00
71573;BME280;59408;51.032;9.410;2023-05-07T02:40:06;99086.97;;;10.31;100.00
71573;BME280;59408;51.032;9.410;2023-05-07T02:42:33;99099.69;;;10.27;100.00
71573;BME280;59408;51.032;9.410;2023-05-07T02:45:00;99099.34;;;10.29;100.00
71573;BME280;59408;51.032;9.410;2023-05-07T02:47:26;99087.66;;;10.28;100.00
71573;BME280;59408;51.032;9.410;2023-05-07T02:49:55;99098.41;;;10.24;100.00
71573;BME280;59408;51.032;9.410;2023-05-07T02:52:22;99103.53;;;10.26;100.00
71573;BME280;59408;51.032;9.410;2023-05-07T02:54:48;99105.78;;;10.24;100.00
71573;BME280;59408;51.032;9.410;2023-05-07T02:57:15;99106.94;;;10.23;100.00
71573;BME280;59408;51.032;9.410;2023-05-07T02:59:41;99108.06;;;10.22;100.00
71573;BME280;59408;51.032;9.410;2023-05-07T03:02:08;99109.19;;;10.21;100.00
71573;BME280;59408;51.032;9.410;2023-05-07T03:04:35;99113.50;;;10.22;100.00
71573;BME280;59408;51.032;9.410;2023-05-07T03:07:03;99113.41;;;10.18;100.00
71573;BME280;59408;51.032;9.410;2023-05-07T03:09:30;99130.06;;;10.17;100.00
71573;BME280;59408;51.032;9.410;2023-05-07T03:11:56;99124.16;;;10.15;100.00
71573;BME280;59408;51.032;9.410;2023-05-07T03:14:23;99121.91;;;10.17;100.00
71573;BME280;59408;51.032;9.410;2023-05-07T03:16:50;99120.31;;;10.16;100.00
71573;BME280;59408;51.032;9.410;2023-05-07T03:19:16;99123.03;;;10.16;100.00
71573;BME280;59408;51.032;9.410;2023-05-07T03:21:43;99122.56;;;10.14;100.00
71573;BME280;59408;51.032;9.410;2023-05-07T03:24:11;99126.88;;;10.15;100.00
71573;BME280;59408;51.032;9.410;2023-05-07T03:26:38;99126.88;;;10.15;100.00
71573;BME280;59408;51.032;9.410;2023-05-07T03:29:04;99124.16;;;10.15;100.00
71573;BME280;59408;51.032;9.410;2023-05-07T03:31:31;99118.56;;;10.11;100.00
71573;BME280;59408;51.032;9.410;2023-05-07T03:33:57;99114.38;;;10.14;100.00
71573;BME280;59408;51.032;9.410;2023-05-07T03:36:24;99127.53;;;10.12;100.00
71573;BME280;59408;51.032;9.410;2023-05-07T03:38:51;99125.63;;;10.12;100.00
71573;BME280;59408;51.032;9.410;2023-05-07T03:41:19;99130.25;;;10.12;100.00
71573;BME280;59408;51.032;9.410;2023-05-07T03:43:45;99124.00;;;10.11;100.00
71573;BME280;59408;51.032;9.410;2023-05-07T03:46:12;99136.84;;;10.11;100.00
71573;BME280;59408;51.032;9.410;2023-05-07T03:48:38;99130.63;;;10.10;100.00
71573;BME280;59408;51.032;9.410;2023-05-07T03:51:05;99136.25;;;10.05;100.00
71573;BME280;59408;51.032;9.410;2023-05-07T03:53:32;99133.19;;;10.07;100.00
71573;BME280;59408;51.032;9.410;2023-05-07T03:55:58;99136.72;;;10.07;100.00
71573;BME280;59408;51.032;9.410;2023-05-07T03:58:26;99142.50;;;10.06;100.00
71573;BME280;59408;51.032;9.410;2023-05-07T04:00:53;99141.72;;;10.05;100.00
71573;BME280;59408;51.032;9.410;2023-05-07T04:03:19;99137.06;;;10.06;100.00
71573;BME280;59408;51.032;9.410;2023-05-07T04:05:46;99133.38;;;10.02;100.00
71573;BME280;59408;51.032;9.410;2023-05-07T04:08:13;99137.59;;;9.99;100.00
71573;BME280;59408;51.032;9.410;2023-05-07T04:10:39;99144.66;;;10.00;100.00
71573;BME280;59408;51.032;9.410;2023-05-07T04:13:06;99148.03;;;9.97;100.00
71573;BME280;59408;51.032;9.410;2023-05-07T04:15:35;99140.66;;;9.98;100.00
71573;BME280;59408;51.032;9.410;2023-05-07T04:18:01;99137.13;;;9.97;100.00
71573;BME280;59408;51.032;9.410;2023-05-07T04:20:28;99143.69;;;9.96;100.00
71573;BME280;59408;51.032;9.410;2023-05-07T04:22:54;99144.50;;;9.97;100.00
71573;BME280;59408;51.032;9.410;2023-05-07T04:25:21;99142.44;;;9.94;100.00
71573;BME280;59408;51.032;9.410;2023-05-07T04:27:48;99145.50;;;9.92;100.00
71573;BME280;59408;51.032;9.410;2023-05-07T04:30:14;99152.09;;;9.91;100.00
71573;BME280;59408;51.032;9.410;2023-05-07T04:32:42;99137.34;;;9.92;100.00
71573;BME280;59408;51.032;9.410;2023-05-07T04:35:09;99142.31;;;9.90;100.00
71573;BME280;59408;51.032;9.410;2023-05-07T04:37:36;99142.31;;;9.90;100.00
71573;BME280;59408;51.032;9.410;2023-05-07T04:40:03;99149.34;;;9.91;100.00
71573;BME280;59408;51.032;9.410;2023-05-07T04:42:30;99149.34;;;9.91;100.00
71573;BME280;59408;51.032;9.410;2023-05-07T04:44:56;99150.81;;;9.88;100.00
71573;BME280;59408;51.032;9.410;2023-05-07T04:47:23;99145.03;;;9.90;100.00
71573;BME280;59408;51.032;9.410;2023-05-07T04:49:51;99155.13;;;9.90;100.00
71573;BME280;59408;51.032;9.410;2023-05-07T04:52:17;99160.59;;;9.90;100.00
71573;BME280;59408;51.032;9.410;2023-05-07T04:54:44;99153.22;;;9.90;100.00
71573;BME280;59408;51.032;9.410;2023-05-07T04:57:11;99156.75;;;9.91;100.00
71573;BME280;59408;51.032;9.410;2023-05-07T04:59:37;99154.00;;;9.91;100.00
71573;BME280;59408;51.032;9.410;2023-05-07T05:02:04;99161.84;;;9.92;100.00
71573;BME280;59408;51.032;9.410;2023-05-07T05:04:31;99166.31;;;9.97;100.00
71573;BME280;59408;51.032;9.410;2023-05-07T05:06:59;99165.97;;;9.98;100.00
71573;BME280;59408;51.032;9.410;2023-05-07T05:09:25;99176.53;;;10.00;100.00
71573;BME280;59408;51.032;9.410;2023-05-07T05:11:52;99169.28;;;10.04;100.00
71573;BME280;59408;51.032;9.410;2023-05-07T05:14:19;99172.00;;;10.04;100.00
71573;BME280;59408;51.032;9.410;2023-05-07T05:16:45;99181.47;;;10.06;100.00
71573;BME280;59408;51.032;9.410;2023-05-07T05:19:12;99194.75;;;10.08;100.00
71573;BME280;59408;51.032;9.410;2023-05-07T05:21:38;99181.47;;;10.06;100.00
71573;BME280;59408;51.032;9.410;2023-05-07T05:24:07;99187.06;;;10.10;100.00
71573;BME280;59408;51.032;9.410;2023-05-07T05:26:34;99191.81;;;10.13;100.00
71573;BME280;59408;51.032;9.410;2023-05-07T05:29:01;99188.44;;;10.16;100.00
71573;BME280;59408;51.032;9.410;2023-05-07T05:31:27;99182.34;;;10.19;100.00
71573;BME280;59408;51.032;9.410;2023-05-07T05:33:54;99182.44;;;10.22;100.00
71573;BME280;59408;51.032;9.410;2023-05-07T05:36:21;99184.84;;;10.24;100.00
71573;BME280;59408;51.032;9.410;2023-05-07T05:38:47;99185.00;;;10.28;100.00
71573;BME280;59408;51.032;9.410;2023-05-07T05:41:15;99186.13;;;10.27;100.00
71573;BME280;59408;51.032;9.410;2023-05-07T05:43:42;99184.06;;;10.23;100.00
71573;BME280;59408;51.032;9.410;2023-05-07T05:46:08;99182.13;;;10.24;100.00
71573;BME280;59408;51.032;9.410;2023-05-07T05:48:35;99182.28;;;10.28;100.00
71573;BME280;59408;51.032;9.410;2023-05-07T05:51:02;99185.25;;;10.35;100.00
71573;BME280;59408;51.032;9.410;2023-05-07T05:53:29;99186.38;;;10.34;100.00
71573;BME280;59408;51.032;9.410;2023-05-07T05:55:55;99193.22;;;10.40;100.00
71573;BME280;59408;51.032;9.410;2023-05-07T05:58:23;99191.53;;;10.47;100.00
71573;BME280;59408;51.032;9.410;2023-05-07T06:00:50;99198.41;;;10.53;100.00
71573;BME280;59408;51.032;9.410;2023-05-07T06:03:17;99196.59;;;10.57;100.00
71573;BME280;59408;51.032;9.410;2023-05-07T06:05:43;99195.72;;;10.66;100.00
71573;BME280;59408;51.032;9.410;2023-05-07T06:08:10;99204.50;;;10.71;100.00
71573;BME280;59408;51.032;9.410;2023-05-07T06:10:37;99205.44;;;10.75;100.00
71573;BME280;59408;51.032;9.410;2023-05-07T06:13:04;99201.41;;;10.81;100.00
71573;BME280;59408;51.032;9.410;2023-05-07T06:15:32;99200.25;;;10.82;100.00
71573;BME280;59408;51.032;9.410;2023-05-07T06:17:58;99211.53;;;10.93;100.00
71573;BME280;59408;51.032;9.410;2023-05-07T06:20:25;99214.19;;;11.02;100.00
71573;BME280;59408;51.032;9.410;2023-05-07T06:22:52;99226.50;;;11.08;100.00
71573;BME280;59408;51.032;9.410;2023-05-07T06:25:19;99226.72;;;11.15;98.81
71573;BME280;59408;51.032;9.410;2023-05-07T06:27:45;99221.59;;;11.01;98.54
71573;BME280;59408;51.032;9.410;2023-05-07T06:30:12;99222.72;;;11.00;99.05
71573;BME280;59408;51.032;9.410;2023-05-07T06:32:41;99230.56;;;11.02;99.07
71573;BME280;59408;51.032;9.410;2023-05-07T06:35:08;99227.47;;;11.03;98.84
71573;BME280;59408;51.032;9.410;2023-05-07T06:37:35;99231.56;;;10.97;98.74
71573;BME280;59408;51.032;9.410;2023-05-07T06:40:02;99227.84;;;11.02;99.31
71573;BME280;59408;51.032;9.410;2023-05-07T06:42:29;99230.50;;;11.10;97.33
71573;BME280;59408;51.032;9.410;2023-05-07T06:44:55;99227.75;;;11.10;97.60
71573;BME280;59408;51.032;9.410;2023-05-07T06:47:22;99222.88;;;11.16;96.75
71573;BME280;59408;51.032;9.410;2023-05-07T06:50:01;99231.19;;;11.19;97.96
71573;BME280;59408;51.032;9.410;2023-05-07T06:52:39;99227.66;;;11.31;96.09
71573;BME280;59408;51.032;9.410;2023-05-07T06:55:25;99235.66;;;11.36;96.51
71573;BME280;59408;51.032;9.410;2023-05-07T06:58:19;99222.34;;;11.47;95.01
71573;BME280;59408;51.032;9.410;2023-05-07T07:01:15;99230.88;;;11.57;95.58
71573;BME280;59408;51.032;9.410;2023-05-07T07:03:46;99229.66;;;11.55;95.28
71573;BME280;59408;51.032;9.410;2023-05-07T07:06:14;99231.81;;;11.61;94.45
71573;BME280;59408;51.032;9.410;2023-05-07T07:08:40;99228.50;;;11.68;94.55
71573;BME280;59408;51.032;9.410;2023-05-07T07:11:08;99232.50;;;11.83;93.79
71573;BME280;59408;51.032;9.410;2023-05-07T07:13:35;99237.41;;;11.89;93.25
71573;BME280;59408;51.032;9.410;2023-05-07T07:16:01;99234.31;;;11.91;92.65
71573;BME280;59408;51.032;9.410;2023-05-07T07:18:28;99226.22;;;11.94;91.68
71573;BME280;59408;51.032;9.410;2023-05-07T07:20:55;99236.13;;;12.23;92.82
71573;BME280;59408;51.032;9.410;2023-05-07T07:23:23;99228.91;;;12.43;89.95
71573;BME280;59408;51.032;9.410;2023-05-07T07:25:50;99241.34;;;12.68;88.92
71573;BME280;59408;51.032;9.410;2023-05-07T07:28:17;99241.03;;;12.70;87.73
71573;BME280;59408;51.032;9.410;2023-05-07T07:30:46;99243.91;;;12.61;88.01
71573;BME280;59408;51.032;9.410;2023-05-07T07:33:13;99247.25;;;12.55;88.09
71573;BME280;59408;51.032;9.410;2023-05-07T07:35:40;99245.19;;;12.52;88.39
71573;BME280;59408;51.032;9.410;2023-05-07T07:38:09;99246.97;;;12.60;87.60
71573;BME280;59408;51.032;9.410;2023-05-07T07:40:38;99249.16;;;12.54;88.08
71573;BME280;59408;51.032;9.410;2023-05-07T07:43:05;99243.41;;;12.71;87.45
71573;BME280;59408;51.032;9.410;2023-05-07T07:45:35;99237.97;;;12.59;87.47
71573;BME280;59408;51.032;9.410;2023-05-07T07:48:01;99242.91;;;12.81;88.16
71573;BME280;59408;51.032;9.410;2023-05-07T07:50:28;99247.19;;;12.95;87.09
71573;BME280;59408;51.032;9.410;2023-05-07T07:53:11;99249.38;;;13.17;86.41
71573;BME280;59408;51.032;9.410;2023-05-07T07:55:39;99252.91;;;13.33;85.27
71573;BME280;59408;51.032;9.410;2023-05-07T07:58:06;99251.78;;;13.34;83.54
71573;BME280;59408;51.032;9.410;2023-05-07T08:00:32;99250.19;;;13.33;85.27
71573;BME280;59408;51.032;9.410;2023-05-07T08:02:59;99248.09;;;13.42;84.45
71573;BME280;59408;51.032;9.410;2023-05-07T08:05:26;99254.47;;;13.62;82.47
71573;BME280;59408;51.032;9.410;2023-05-07T08:07:53;99254.31;;;13.71;83.44
71573;BME280;59408;51.032;9.410;2023-05-07T08:10:21;99261.09;;;14.08;82.54
71573;BME280;59408;51.032;9.410;2023-05-07T08:12:50;99265.97;;;14.34;80.06
71573;BME280;59408;51.032;9.410;2023-05-07T08:15:17;99267.50;;;14.31;80.42
71573;BME280;59408;51.032;9.410;2023-05-07T08:17:44;99272.06;;;14.43;81.18
71573;BME280;59408;51.032;9.410;2023-05-07T08:20:11;99269.53;;;14.34;79.70
71573;BME280;59408;51.032;9.410;2023-05-07T08:22:38;99255.69;;;14.47;79.64
71573;BME280;59408;51.032;9.410;2023-05-07T08:25:05;99256.09;;;14.84;79.03
71573;BME280;59408;51.032;9.410;2023-05-07T08:27:31;99261.66;;;14.87;77.79
71573;BME280;59408;51.032;9.410;2023-05-07T08:30:00;99260.19;;;15.13;80.17
71573;BME280;59408;51.032;9.410;2023-05-07T08:32:29;99259.53;;;15.61;79.07
71573;BME280;59408;51.032;9.410;2023-05-07T08:34:55;99262.16;;;16.00;74.42
71573;BME280;59408;51.032;9.410;2023-05-07T08:37:22;99269.91;;;15.94;73.38
71573;BME280;59408;51.032;9.410;2023-05-07T08:39:49;99269.19;;;16.24;72.90
71573;BME280;59408;51.032;9.410;2023-05-07T08:42:17;99276.34;;;16.28;73.49
71573;BME280;59408;51.032;9.410;2023-05-07T08:44:45;99271.53;;;16.51;71.74
71573;BME280;59408;51.032;9.410;2023-05-07T08:47:13;99272.63;;;16.70;71.87
71573;BME280;59408;51.032;9.410;2023-05-07T08:49:40;99285.53;;;17.29;69.74
71573;BME280;59408;51.032;9.410;2023-05-07T08:52:07;99283.41;;;17.15;68.96
71573;BME280;59408;51.032;9.410;2023-05-07T08:54:37;99283.31;;;16.75;69.93
71573;BME280;59408;51.032;9.410;2023-05-07T08:57:04;99288.31;;;16.66;70.67
71573;BME280;59408;51.032;9.410;2023-05-07T08:59:30;99288.16;;;16.58;70.85
71573;BME280;59408;51.032;9.410;2023-05-07T09:01:57;99282.66;;;16.29;71.14
71573;BME280;59408;51.032;9.410;2023-05-07T09:04:25;99291.28;;;16.04;72.17
71573;BME280;59408;51.032;9.410;2023-05-07T09:06:52;99290.97;;;15.83;72.72
71573;BME280;59408;51.032;9.410;2023-05-07T09:09:18;99297.00;;;15.92;73.94
71573;BME280;59408;51.032;9.410;2023-05-07T09:11:45;99288.13;;;16.02;73.46
71573;BME280;59408;51.032;9.410;2023-05-07T09:14:12;99281.53;;;16.33;71.29
71573;BME280;59408;51.032;9.410;2023-05-07T09:16:39;99283.81;;;16.57;69.96
71573;BME280;59408;51.032;9.410;2023-05-07T09:19:06;99282.13;;;16.76;70.71
71573;BME280;59408;51.032;9.410;2023-05-07T09:21:33;99277.56;;;16.87;71.30
71573;BME280;59408;51.032;9.410;2023-05-07T09:24:00;99267.66;;;16.82;70.15
71573;BME280;59408;51.032;9.410;2023-05-07T09:26:27;99269.72;;;16.89;70.50
71573;BME280;59408;51.032;9.410;2023-05-07T09:28:53;99270.16;;;16.94;70.37
71573;BME280;59408;51.032;9.410;2023-05-07T09:31:20;99271.44;;;17.01;68.92
71573;BME280;59408;51.032;9.410;2023-05-07T09:33:47;99265.56;;;17.02;69.23
71573;BME280;59408;51.032;9.410;2023-05-07T09:36:17;99264.22;;;17.26;70.65
71573;BME280;59408;51.032;9.410;2023-05-07T09:38:50;99268.50;;;18.04;68.22
71573;BME280;59408;51.032;9.410;2023-05-07T09:41:19;99268.00;;;18.43;66.01
71573;BME280;59408;51.032;9.410;2023-05-07T09:43:47;99275.25;;;18.69;64.92
71573;BME280;59408;51.032;9.410;2023-05-07T09:46:24;99278.09;;;18.87;65.75
71573;BME280;59408;51.032;9.410;2023-05-07T09:48:52;99273.88;;;19.17;63.01
71573;BME280;59408;51.032;9.410;2023-05-07T09:51:28;99282.28;;;19.46;66.70
71573;BME280;59408;51.032;9.410;2023-05-07T09:53:57;99275.59;;;19.65;61.56
71573;BME280;59408;51.032;9.410;2023-05-07T09:56:25;99276.78;;;19.67;63.10
71573;BME280;59408;51.032;9.410;2023-05-07T09:58:54;99274.41;;;19.98;58.81
71573;BME280;59408;51.032;9.410;2023-05-07T10:01:23;99278.78;;;20.06;60.60
71573;BME280;59408;51.032;9.410;2023-05-07T10:03:51;99274.03;;;19.99;60.94
71573;BME280;59408;51.032;9.410;2023-05-07T10:06:19;99267.69;;;20.09;61.39
71573;BME280;59408;51.032;9.410;2023-05-07T10:08:46;99268.09;;;20.33;59.85
71573;BME280;59408;51.032;9.410;2023-05-07T10:11:14;99254.59;;;20.49;58.46
71573;BME280;59408;51.032;9.410;2023-05-07T10:13:43;99258.94;;;20.53;60.94
71573;BME280;59408;51.032;9.410;2023-05-07T10:16:10;99262.81;;;20.84;58.67
71573;BME280;59408;51.032;9.410;2023-05-07T10:18:36;99255.38;;;20.53;60.38
71573;BME280;59408;51.032;9.410;2023-05-07T10:21:07;99261.28;;;20.58;60.57
71573;BME280;59408;51.032;9.410;2023-05-07T10:23:35;99255.41;;;20.46;59.51
71573;BME280;59408;51.032;9.410;2023-05-07T10:26:05;99247.13;;;20.39;58.83
71573;BME280;59408;51.032;9.410;2023-05-07T10:28:37;99252.53;;;20.74;60.13
71573;BME280;59408;51.032;9.410;2023-05-07T10:31:15;99245.69;;;21.03;59.57
71573;BME280;59408;51.032;9.410;2023-05-07T10:33:46;99250.78;;;21.19;56.96
71573;BME280;59408;51.032;9.410;2023-05-07T10:36:14;99247.19;;;21.22;58.01
71573;BME280;59408;51.032;9.410;2023-05-07T10:38:41;99253.16;;;21.14;57.21
71573;BME280;59408;51.032;9.410;2023-05-07T10:41:09;99254.75;;;21.18;57.29
71573;BME280;59408;51.032;9.410;2023-05-07T10:43:42;99252.09;;;21.59;57.71
71573;BME280;59408;51.032;9.410;2023-05-07T10:46:10;99254.19;;;22.00;56.67
71573;BME280;59408;51.032;9.410;2023-05-07T10:49:07;99261.22;;;22.56;57.46
71573;BME280;59408;51.032;9.410;2023-05-07T10:51:35;99263.13;;;22.63;55.64
71573;BME280;59408;51.032;9.410;2023-05-07T10:54:18;99259.25;;;22.53;54.79
71573;BME280;59408;51.032;9.410;2023-05-07T10:56:45;99266.63;;;22.70;55.46
71573;BME280;59408;51.032;9.410;2023-05-07T10:59:34;99257.84;;;22.72;55.25
71573;BME280;59408;51.032;9.410;2023-05-07T11:02:02;99265.38;;;23.05;53.92
71573;BME280;59408;51.032;9.410;2023-05-07T11:04:30;99250.00;;;22.97;53.02
71573;BME280;59408;51.032;9.410;2023-05-07T11:10:00;99252.97;;;23.44;49.88
71573;BME280;59408;51.032;9.410;2023-05-07T11:12:49;99258.03;;;23.22;49.98
71573;BME280;59408;51.032;9.410;2023-05-07T11:15:42;99250.44;;;23.26;50.29
71573;BME280;59408;51.032;9.410;2023-05-07T11:18:09;99251.88;;;22.73;53.39
71573;BME280;59408;51.032;9.410;2023-05-07T11:20:53;99252.38;;;22.65;53.50
71573;BME280;59408;51.032;9.410;2023-05-07T11:23:54;99254.00;;;22.21;53.07
71573;BME280;59408;51.032;9.410;2023-05-07T11:26:21;99255.41;;;21.99;53.72
71573;BME280;59408;51.032;9.410;2023-05-07T11:28:48;99260.09;;;21.50;56.70
71573;BME280;59408;51.032;9.410;2023-05-07T11:31:21;99256.13;;;21.51;53.73
71573;BME280;59408;51.032;9.410;2023-05-07T11:33:48;99258.47;;;21.56;54.69
71573;BME280;59408;51.032;9.410;2023-05-07T11:36:15;99249.16;;;21.25;54.78
71573;BME280;59408;51.032;9.410;2023-05-07T11:38:42;99256.97;;;21.41;55.86
71573;BME280;59408;51.032;9.410;2023-05-07T11:41:08;99256.75;;;21.14;55.50
71573;BME280;59408;51.032;9.410;2023-05-07T11:43:35;99262.84;;;20.74;57.48
71573;BME280;59408;51.032;9.410;2023-05-07T11:46:06;99260.47;;;20.76;57.13
71573;BME280;59408;51.032;9.410;2023-05-07T11:48:34;99253.56;;;21.19;55.74
71573;BME280;59408;51.032;9.410;2023-05-07T11:51:02;99258.75;;;21.10;56.77
71573;BME280;59408;51.032;9.410;2023-05-07T11:53:36;99260.78;;;20.92;58.63
71573;BME280;59408;51.032;9.410;2023-05-07T11:56:06;99262.28;;;21.14;57.48
71573;BME280;59408;51.032;9.410;2023-05-07T11:58:33;99265.78;;;21.91;53.70
71573;BME280;59408;51.032;9.410;2023-05-07T12:00:59;99268.88;;;22.00;53.23
71573;BME280;59408;51.032;9.410;2023-05-07T12:03:26;99271.94;;;22.13;53.08
71573;BME280;59408;51.032;9.410;2023-05-07T12:05:59;99277.59;;;22.02;52.44
71573;BME280;59408;51.032;9.410;2023-05-07T12:08:26;99275.06;;;22.60;55.14
71573;BME280;59408;51.032;9.410;2023-05-07T12:10:53;99271.81;;;23.02;50.09
71573;BME280;59408;51.032;9.410;2023-05-07T12:13:21;99268.66;;;23.00;53.01
71573;BME280;59408;51.032;9.410;2023-05-07T12:15:50;99263.03;;;23.34;51.38
71573;BME280;59408;51.032;9.410;2023-05-07T12:18:17;99258.53;;;23.44;50.40
71573;BME280;59408;51.032;9.410;2023-05-07T12:20:44;99267.03;;;23.60;50.04
71573;BME280;59408;51.032;9.410;2023-05-07T12:23:13;99263.56;;;23.79;52.39
71573;BME280;59408;51.032;9.410;2023-05-07T12:25:41;99255.97;;;24.07;51.48
71573;BME280;59408;51.032;9.410;2023-05-07T12:28:08;99256.44;;;23.51;49.97
71573;BME280;59408;51.032;9.410;2023-05-07T12:30:39;99263.31;;;23.43;50.82
71573;BME280;59408;51.032;9.410;2023-05-07T12:33:06;99260.06;;;23.18;49.00
71573;BME280;59408;51.032;9.410;2023-05-07T12:35:36;99260.16;;;23.11;49.25
71573;BME280;59408;51.032;9.410;2023-05-07T12:38:07;99254.66;;;23.04;50.93
71573;BME280;59408;51.032;9.410;2023-05-07T12:40:39;99257.38;;;23.11;50.67
71573;BME280;59408;51.032;9.410;2023-05-07T12:43:06;99251.06;;;23.07;51.64
71573;BME280;59408;51.032;9.410;2023-05-07T12:45:38;99256.63;;;23.07;51.00
71573;BME280;59408;51.032;9.410;2023-05-07T12:48:05;99253.66;;;22.91;51.62
71573;BME280;59408;51.032;9.410;2023-05-07T12:50:32;99261.72;;;22.81;50.95
71573;BME280;59408;51.032;9.410;2023-05-07T12:52:59;99258.41;;;22.94;51.85
71573;BME280;59408;51.032;9.410;2023-05-07T12:55:26;99265.25;;;23.16;49.14
71573;BME280;59408;51.032;9.410;2023-05-07T12:58:01;99263.72;;;23.42;48.52
71573;BME280;59408;51.032;9.410;2023-05-07T13:00:35;99258.22;;;23.08;49.17
71573;BME280;59408;51.032;9.410;2023-05-07T13:03:02;99259.03;;;23.05;49.80